Time;durP1;ratioP1;P1;durP2;ratioP2;P2;SDS_P1;SDS_P2;PMS_P1;PMS_P2;Temp;Humidity;BMP_temperature;BMP_pressure;BME280_temperature;BME280_humidity;BME280_pressure;Samples;Min_cycle;Max_cycle;Signal;HPM_P1;HPM_P2
2023/08/16 00:00:55;;;;;;;12.40;6.00;;;19.60;99.90;;;20.21;100.00;98375.88;5079015;28;20502;-79
2023/08/16 00:03:23;;;;;;;16.43;6.10;;;19.50;99.90;;;20.24;100.00;98383.38;5076123;28;21176;-79
2023/08/16 00:05:54;;;;;;;40.63;5.37;;;19.50;99.90;;;20.19;100.00;98377.19;5079789;28;20870;-78
2023/08/16 00:08:25;;;;;;;17.30;5.90;;;19.50;99.90;;;20.21;100.00;98381.19;5078294;28;20933;-78
2023/08/16 00:10:54;;;;;;;33.90;5.00;;;19.50;99.90;;;20.20;100.00;98376.91;5078861;28;20495;-78
2023/08/16 00:13:25;;;;;;;34.97;4.73;;;19.40;99.90;;;20.17;100.00;98384.56;5078345;28;20470;-79
2023/08/16 00:15:55;;;;;;;18.57;4.73;;;19.40;99.90;;;20.13;100.00;98389.56;5077408;28;20996;-77
2023/08/16 00:18:26;;;;;;;9.77;4.43;;;19.30;99.90;;;20.09;100.00;98378.63;5077105;28;20459;-78
2023/08/16 00:20:56;;;;;;;4.90;3.97;;;19.20;99.90;;;20.09;100.00;98378.63;5076654;28;20582;-79
2023/08/16 00:23:27;;;;;;;7.80;4.00;;;19.20;99.90;;;20.09;100.00;98375.97;5075893;28;20464;-79
2023/08/16 00:25:57;;;;;;;5.70;4.37;;;19.20;99.90;;;20.12;100.00;98372.03;5078170;28;20543;-79
2023/08/16 00:28:27;;;;;;;11.23;4.87;;;19.20;99.90;;;20.08;100.00;98373.53;5077485;28;20472;-79
2023/08/16 00:30:57;;;;;;;7.23;3.67;;;19.30;99.90;;;20.05;100.00;98368.72;5076850;28;20985;-79
2023/08/16 00:33:26;;;;;;;12.87;4.27;;;19.30;99.90;;;20.02;100.00;98370.00;5077697;28;20830;-79
2023/08/16 00:35:58;;;;;;;7.53;5.13;;;19.20;99.90;;;19.88;100.00;98360.72;5077374;28;20460;-78
2023/08/16 00:38:27;;;;;;;6.03;4.00;;;19.30;99.90;;;19.81;100.00;98364.56;5075889;28;20522;-78
2023/08/16 00:40:57;;;;;;;10.93;4.13;;;19.30;99.90;;;19.76;100.00;98370.59;5074595;28;21267;-79
2023/08/16 00:43:27;;;;;;;7.93;3.93;;;19.20;99.90;;;19.72;100.00;98372.09;5077019;28;20476;-78
2023/08/16 00:45:57;;;;;;;5.40;3.80;;;19.20;99.90;;;19.70;100.00;98378.69;5076981;28;20464;-79
2023/08/16 00:48:31;;;;;;;8.33;3.60;;;19.20;99.90;;;19.67;100.00;98376.50;5075568;28;20470;-78
2023/08/16 00:51:04;;;;;;;7.53;4.13;;;19.20;99.90;;;19.63;100.00;98372.72;5075250;28;20492;-80
2023/08/16 00:53:34;;;;;;;5.87;3.57;;;19.10;99.90;;;19.70;100.00;98378.69;5081085;28;20458;-78
2023/08/16 00:56:06;;;;;;;8.80;4.53;;;19.10;99.90;;;19.74;100.00;98385.13;5077944;28;20464;-78
2023/08/16 00:58:35;;;;;;;6.23;4.00;;;19.10;99.90;;;19.74;100.00;98385.13;5073508;28;20528;-78
2023/08/16 01:01:07;;;;;;;4.70;3.40;;;19.10;99.90;;;19.70;100.00;98389.31;5077420;28;20488;-78
2023/08/16 01:03:37;;;;;;;5.30;3.80;;;19.20;99.90;;;19.62;100.00;98381.72;5076382;28;20874;-79
2023/08/16 01:06:10;;;;;;;10.67;4.80;;;19.20;99.90;;;19.60;100.00;98387.25;5077280;28;20543;-78
2023/08/16 01:08:41;;;;;;;6.47;4.50;;;19.10;99.90;;;19.62;100.00;98379.88;5074639;28;20456;-78
2023/08/16 01:11:19;;;;;;;5.93;3.77;;;19.00;99.90;;;19.64;100.00;98383.09;5075359;28;21002;-78
2023/08/16 01:13:59;;;;;;;6.53;3.67;;;19.00;99.90;;;19.64;100.00;98385.75;5075737;28;20447;-78
2023/08/16 01:16:31;;;;;;;6.27;3.67;;;19.00;99.90;;;19.57;100.00;98380.59;5076560;28;20482;-79
2023/08/16 01:19:04;;;;;;;8.17;4.67;;;19.10;99.90;;;19.53;100.00;98379.44;5075339;28;21060;-83
2023/08/16 01:21:44;;;;;;;6.30;4.13;;;19.10;99.90;;;19.55;100.00;98385.31;5075451;28;20495;-79
2023/08/16 01:24:27;;;;;;;9.00;4.27;;;19.00;99.90;;;19.58;100.00;98395.44;5078228;28;20462;-79
2023/08/16 01:26:58;;;;;;;14.63;4.50;;;19.00;99.90;;;19.53;100.00;98390.06;5076580;28;21002;-78
2023/08/16 01:29:30;;;;;;;5.93;4.20;;;19.00;99.90;;;19.49;100.00;98399.53;5077190;28;20906;-78
2023/08/16 01:32:01;;;;;;;5.50;3.90;;;19.00;99.90;;;19.51;100.00;98400.09;5077443;28;20463;-78
2023/08/16 01:34:32;;;;;;;4.10;3.10;;;18.90;99.90;;;19.54;100.00;98391.66;5076305;28;20468;-78
2023/08/16 01:37:01;;;;;;;4.93;3.93;;;18.90;99.90;;;19.51;100.00;98396.63;5074455;28;20466;-78
2023/08/16 01:39:31;;;;;;;5.30;4.23;;;18.90;99.90;;;19.46;100.00;98385.94;5076596;28;20468;-78
2023/08/16 01:42:07;;;;;;;8.43;3.63;;;18.90;99.90;;;19.49;100.00;98388.09;5076480;28;20503;-79
2023/08/16 01:44:37;;;;;;;5.47;3.50;;;18.90;99.90;;;19.43;100.00;98387.22;5073859;28;20796;-78
2023/08/16 01:47:08;;;;;;;4.90;3.90;;;18.90;99.90;;;19.43;100.00;98381.91;5072340;28;20489;-79
2023/08/16 01:49:39;;;;;;;5.30;3.30;;;18.90;99.90;;;19.48;100.00;98375.88;5076759;28;20514;-78
2023/08/16 01:52:09;;;;;;;5.40;3.23;;;18.80;99.90;;;19.51;100.00;98380.69;5076801;28;20931;-79
2023/08/16 01:54:40;;;;;;;4.83;3.10;;;18.80;99.90;;;19.35;100.00;98386.72;5076987;28;20460;-78
2023/08/16 01:57:11;;;;;;;7.07;3.67;;;18.90;99.90;;;19.34;100.00;98390.41;5076796;28;20471;-78
2023/08/16 01:59:40;;;;;;;5.43;2.80;;;18.80;99.90;;;19.38;100.00;98389.72;5074809;28;20559;-78
2023/08/16 02:02:09;;;;;;;10.13;2.97;;;18.80;99.90;;;19.41;100.00;98389.28;5077348;28;20522;-79
2023/08/16 02:04:39;;;;;;;4.60;2.70;;;18.80;99.90;;;19.42;100.00;98390.91;5076800;28;20534;-78
2023/08/16 02:07:08;;;;;;;4.03;2.90;;;18.80;99.90;;;19.43;100.00;98395.16;5075938;28;20510;-78
2023/08/16 02:09:37;;;;;;;4.33;2.47;;;18.80;99.90;;;19.45;100.00;98385.13;5074188;28;20484;-79
2023/08/16 02:12:11;;;;;;;3.77;2.37;;;18.80;99.90;;;19.46;100.00;98384.09;5076381;28;20571;-79
2023/08/16 02:14:42;;;;;;;7.50;3.10;;;18.80;99.90;;;19.45;100.00;98377.16;5074994;28;20515;-79
2023/08/16 02:17:11;;;;;;;2.20;2.00;;;18.80;99.90;;;19.47;100.00;98380.38;5078152;28;20855;-78
2023/08/16 02:19:41;;;;;;;3.27;2.20;;;18.70;99.90;;;19.45;100.00;98382.47;5072214;28;21551;-83
2023/08/16 02:22:10;;;;;;;3.50;2.60;;;18.80;99.90;;;19.36;100.00;98375.91;5073333;28;20502;-78
2023/08/16 02:24:40;;;;;;;2.97;2.17;;;18.90;99.90;;;19.38;100.00;98380.94;5074329;28;20765;-78
2023/08/16 02:27:12;;;;;;;5.80;2.40;;;18.80;99.90;;;19.42;100.00;98371.53;5076157;28;21115;-79
2023/08/16 02:29:41;;;;;;;5.67;2.10;;;18.70;99.90;;;19.45;100.00;98376.34;5074229;28;20471;-79
2023/08/16 02:32:10;;;;;;;6.90;3.33;;;18.80;99.90;;;19.50;100.00;98374.63;5074478;28;20480;-78
2023/08/16 02:34:40;;;;;;;8.40;4.43;;;18.70;99.90;;;19.54;100.00;98370.44;5072505;28;20460;-83
2023/08/16 02:37:11;;;;;;;4.70;3.40;;;18.70;99.90;;;19.53;100.00;98387.41;5074470;28;20468;-77
2023/08/16 02:39:40;;;;;;;6.43;3.43;;;18.70;99.90;;;19.51;100.00;98378.84;5073923;28;20491;-77
2023/08/16 02:42:11;;;;;;;4.37;3.43;;;18.70;99.90;;;19.51;100.00;98381.50;5074997;28;20498;-78
2023/08/16 02:44:42;;;;;;;3.93;2.50;;;18.80;99.90;;;19.50;100.00;98374.63;5072001;28;20467;-77
2023/08/16 02:47:11;;;;;;;3.67;2.90;;;18.80;99.90;;;19.49;100.00;98375.66;5075324;28;20520;-77
2023/08/16 02:49:41;;;;;;;8.40;2.90;;;18.70;99.90;;;19.47;100.00;98375.06;5072775;28;20993;-77
2023/08/16 02:52:12;;;;;;;8.03;3.27;;;18.70;99.90;;;19.42;100.00;98380.28;5072163;28;20451;-77
2023/08/16 02:54:42;;;;;;;8.10;3.40;;;18.80;99.90;;;19.40;100.00;98374.38;5075341;28;20463;-77
2023/08/16 02:57:15;;;;;;;5.70;2.77;;;18.70;99.90;;;19.39;100.00;98374.63;5075108;28;20521;-77
2023/08/16 02:59:46;;;;;;;5.47;2.40;;;18.70;99.90;;;19.27;100.00;98368.53;5072841;28;20509;-77
2023/08/16 03:02:17;;;;;;;4.00;2.90;;;18.80;99.90;;;19.26;100.00;98374.88;5076965;28;20495;-78
2023/08/16 03:04:47;;;;;;;3.63;2.80;;;18.80;99.90;;;19.28;100.00;98370.94;5075609;28;20546;-77
2023/08/16 03:07:18;;;;;;;3.57;2.80;;;18.70;99.90;;;19.22;100.00;98371.91;5075386;28;20465;-77
2023/08/16 03:09:48;;;;;;;4.60;2.93;;;18.70;99.90;;;19.14;100.00;98361.63;5076918;28;20493;-81
2023/08/16 03:12:19;;;;;;;15.07;6.43;;;18.70;99.90;;;19.19;100.00;98360.94;5075164;28;21098;-78
2023/08/16 03:14:49;;;;;;;4.57;3.23;;;18.60;99.90;;;19.22;100.00;98355.97;5076622;28;20569;-78
2023/08/16 03:17:20;;;;;;;8.33;3.53;;;18.50;99.90;;;19.18;100.00;98349.53;5074841;28;20896;-77
2023/08/16 03:19:50;;;;;;;11.37;3.17;;;18.50;99.90;;;19.16;100.00;98350.81;5075424;28;20467;-77
2023/08/16 03:22:21;;;;;;;7.57;3.03;;;18.50;99.90;;;19.13;100.00;98352.06;5074759;28;20511;-76
2023/08/16 03:24:51;;;;;;;3.90;2.90;;;18.50;99.90;;;19.09;100.00;98346.41;5073143;28;20565;-77
2023/08/16 03:27:23;;;;;;;9.27;2.23;;;18.50;99.90;;;19.12;100.00;98352.31;5076156;28;20464;-77
2023/08/16 03:29:54;;;;;;;11.57;3.70;;;18.40;99.90;;;19.09;100.00;98349.06;5074090;28;20459;-77
2023/08/16 03:32:25;;;;;;;6.43;3.60;;;18.30;99.90;;;19.10;100.00;98360.50;5073339;28;20467;-77
2023/08/16 03:34:55;;;;;;;7.90;3.17;;;18.40;99.90;;;19.12;100.00;98365.56;5074838;28;20468;-77
2023/08/16 03:37:24;;;;;;;12.33;2.80;;;18.40;99.90;;;19.12;100.00;98368.22;5073887;28;20471;-76
2023/08/16 03:39:57;;;;;;;10.60;2.50;;;18.30;99.90;;;19.10;100.00;98373.75;5073433;28;20466;-77
2023/08/16 03:42:29;;;;;;;10.13;2.80;;;18.30;99.90;;;19.09;100.00;98377.44;5073059;28;20484;-77
2023/08/16 03:45:00;;;;;;;5.77;2.80;;;18.20;99.90;;;19.09;100.00;98377.44;5073149;28;20534;-78
2023/08/16 03:47:29;;;;;;;3.03;2.43;;;18.30;99.90;;;19.12;100.00;98377.00;5074579;28;20478;-77
2023/08/16 03:50:00;;;;;;;13.30;2.87;;;18.20;99.90;;;19.06;100.00;98378.72;5068808;28;20990;-81
2023/08/16 03:52:30;;;;;;;5.00;2.33;;;18.20;99.90;;;18.98;100.00;98379.09;5068678;28;20459;-77
2023/08/16 03:55:02;;;;;;;8.73;3.73;;;18.40;99.90;;;18.92;100.00;98372.03;5071145;28;20507;-78
2023/08/16 03:57:35;;;;;;;8.60;5.37;;;18.20;99.90;;;18.86;100.00;98374.81;5070006;28;20456;-82
2023/08/16 04:00:11;;;;;;;6.90;3.57;;;18.10;99.90;;;18.84;100.00;98376.91;5072127;28;20460;-77
2023/08/16 04:02:41;;;;;;;4.10;2.97;;;18.00;99.90;;;18.80;100.00;98368.59;5073140;28;20531;-77
2023/08/16 04:05:14;;;;;;;7.70;3.70;;;18.00;99.90;;;18.79;100.00;98366.19;5071802;28;20470;-81
2023/08/16 04:07:45;;;;;;;8.43;4.00;;;17.80;99.90;;;18.81;100.00;98367.53;5070178;28;20501;-77
2023/08/16 04:10:14;;;;;;;5.63;2.60;;;17.90;99.90;;;18.82;100.00;98371.00;5073144;28;20539;-77
2023/08/16 04:12:45;;;;;;;4.20;3.40;;;18.00;99.90;;;18.84;100.00;98375.06;5072739;28;21535;-78
2023/08/16 04:15:15;;;;;;;6.53;2.77;;;17.90;99.90;;;18.88;100.00;98375.41;5077173;28;20827;-77
2023/08/16 04:17:46;;;;;;;16.33;2.80;;;17.90;99.90;;;18.89;100.00;98375.16;5074892;28;20467;-77
2023/08/16 04:20:17;;;;;;;15.07;3.10;;;17.90;99.90;;;18.91;100.00;98370.44;5074784;28;21120;-76
2023/08/16 04:22:48;;;;;;;6.97;3.10;;;18.00;99.90;;;18.87;100.00;98363.19;5074564;28;20483;-77
2023/08/16 04:25:18;;;;;;;4.47;2.70;;;18.10;99.90;;;18.83;100.00;98362.84;5072029;28;20483;-81
2023/08/16 04:27:49;;;;;;;5.90;2.93;;;18.00;99.90;;;18.80;100.00;98368.59;5072012;28;20521;-77
2023/08/16 04:30:18;;;;;;;5.90;3.17;;;18.00;99.90;;;18.80;100.00;98367.78;5071667;28;20467;-78
2023/08/16 04:32:49;;;;;;;3.70;2.40;;;18.10;99.90;;;18.77;100.00;98363.78;5073796;28;20469;-77
2023/08/16 04:35:19;;;;;;;9.17;2.40;;;18.00;99.90;;;18.74;100.00;98363.44;5072045;28;20459;-81
2023/08/16 04:37:49;;;;;;;14.43;3.43;;;18.00;99.90;;;18.74;100.00;98363.44;5073581;28;20937;-77
2023/08/16 04:40:20;;;;;;;9.37;4.10;;;17.90;99.90;;;18.80;100.00;98357.19;5073884;28;20977;-77
2023/08/16 04:42:50;;;;;;;6.30;2.97;;;17.90;99.90;;;18.80;100.00;98357.19;5071489;28;20924;-78
2023/08/16 04:45:21;;;;;;;4.40;2.40;;;18.00;99.90;;;18.81;100.00;98354.28;5074245;28;20456;-79
2023/08/16 04:47:50;;;;;;;16.13;2.87;;;18.00;99.90;;;18.83;100.00;98351.44;5081185;28;20459;-77
2023/08/16 04:50:20;;;;;;;7.20;3.00;;;17.90;99.90;;;18.79;100.00;98352.94;5079844;28;20472;-76
2023/08/16 04:52:51;;;;;;;7.17;3.37;;;18.10;99.90;;;18.74;100.00;98352.84;5078493;28;20448;-78
2023/08/16 04:55:21;;;;;;;4.33;3.10;;;18.10;99.90;;;18.77;100.00;98355.00;5077662;28;20989;-78
2023/08/16 04:57:52;;;;;;;5.00;3.10;;;18.00;99.90;;;18.74;100.00;98358.94;5077763;28;20460;-78
2023/08/16 05:00:23;;;;;;;4.60;2.90;;;18.10;99.90;;;18.73;100.00;98359.16;5077736;28;20474;-78
2023/08/16 05:02:54;;;;;;;5.80;2.23;;;18.00;99.90;;;18.75;100.00;98349.13;5078175;28;21001;-78
2023/08/16 05:05:25;;;;;;;3.93;2.60;;;18.00;99.90;;;18.79;100.00;98355.56;5077685;28;20886;-78
2023/08/16 05:07:53;;;;;;;6.57;3.67;;;18.00;99.90;;;18.81;100.00;98367.53;5076994;28;20455;-78
2023/08/16 05:10:23;;;;;;;2.93;2.63;;;18.00;99.90;;;18.85;100.00;98360.75;5078910;28;20928;-77
2023/08/16 05:12:54;;;;;;;7.87;3.40;;;17.90;99.90;;;18.86;100.00;98366.88;5077717;28;21016;-78
2023/08/16 05:15:26;;;;;;;5.73;2.60;;;17.90;99.90;;;18.87;100.00;98371.13;5077881;28;20533;-78
2023/08/16 05:17:56;;;;;;;2.90;2.63;;;17.90;99.90;;;18.90;100.00;98368.00;5077684;28;20503;-79
2023/08/16 05:20:27;;;;;;;11.03;3.13;;;17.90;99.90;;;18.90;100.00;98362.72;5076117;28;20502;-78
2023/08/16 05:22:57;;;;;;;5.63;3.07;;;18.00;99.90;;;18.91;100.00;98364.34;5075843;28;20496;-78
2023/08/16 05:25:27;;;;;;;12.07;3.43;;;18.00;99.90;;;18.91;100.00;98372.28;5076676;28;20471;-78
2023/08/16 05:27:59;;;;;;;10.00;3.50;;;18.00;99.90;;;18.93;100.00;98380.81;5077483;28;20992;-78
2023/08/16 05:30:29;;;;;;;3.17;2.70;;;18.00;99.90;;;18.92;100.00;98390.59;5075776;28;20490;-78
2023/08/16 05:32:58;;;;;;;5.30;2.90;;;17.90;99.90;;;18.92;100.00;98385.28;5078216;28;20941;-78
2023/08/16 05:35:29;;;;;;;2.90;2.30;;;18.00;99.90;;;18.94;100.00;98377.13;5077312;28;20999;-78
2023/08/16 05:37:59;;;;;;;6.67;3.00;;;18.10;99.90;;;18.96;100.00;98382.97;5077417;28;20456;-78
2023/08/16 05:40:29;;;;;;;3.07;2.40;;;18.10;99.90;;;18.89;100.00;98393.72;5077262;28;20541;-78
2023/08/16 05:43:00;;;;;;;3.53;2.43;;;18.30;99.90;;;18.91;100.00;98390.84;5077586;28;20484;-78
2023/08/16 05:45:31;;;;;;;7.53;2.57;;;18.20;99.90;;;18.95;100.00;98403.38;5077725;28;20458;-78
2023/08/16 05:48:01;;;;;;;4.10;2.47;;;18.10;99.90;;;18.98;100.00;98415.38;5078245;28;20456;-78
2023/08/16 05:50:34;;;;;;;5.50;3.20;;;18.10;99.90;;;19.00;100.00;98415.94;5079795;28;20472;-78
2023/08/16 05:53:05;;;;;;;4.77;2.60;;;18.20;99.90;;;19.03;100.00;98418.13;5078525;28;20463;-78
2023/08/16 05:55:34;;;;;;;2.93;2.40;;;18.20;99.90;;;19.06;100.00;98415.00;5077964;28;20988;-78
2023/08/16 05:58:05;;;;;;;8.23;2.60;;;18.20;99.90;;;19.09;100.00;98407.41;5077851;28;20460;-78
2023/08/16 06:00:34;;;;;;;3.23;2.67;;;18.30;99.90;;;19.10;100.00;98410.88;5076945;28;20529;-78
2023/08/16 06:03:07;;;;;;;6.23;2.80;;;18.30;99.90;;;19.09;100.00;98414.53;5078035;28;20498;-78
2023/08/16 06:05:36;;;;;;;8.33;2.63;;;18.30;99.90;;;19.13;100.00;98415.69;5079807;28;20543;-78
2023/08/16 06:08:08;;;;;;;3.83;2.73;;;18.30;99.90;;;19.15;100.00;98413.63;5078713;28;20467;-78
2023/08/16 06:10:39;;;;;;;5.93;2.63;;;18.30;99.90;;;19.18;100.00;98418.47;5076881;28;21047;-78
2023/08/16 06:13:11;;;;;;;5.60;2.63;;;18.30;99.90;;;19.17;100.00;98427.47;5078362;28;20476;-78
2023/08/16 06:15:41;;;;;;;10.03;2.70;;;18.20;99.90;;;19.20;100.00;98424.34;5080263;28;20474;-78
2023/08/16 06:18:12;;;;;;;12.00;2.70;;;18.30;99.90;;;19.25;100.00;98418.34;5077447;28;20547;-78
2023/08/16 06:20:44;;;;;;;5.70;2.70;;;18.30;99.90;;;19.29;100.00;98414.19;5078242;28;20555;-78
2023/08/16 06:23:13;;;;;;;2.80;2.43;;;18.40;99.90;;;19.31;100.00;98412.91;5079028;28;21011;-78
2023/08/16 06:25:42;;;;;;;3.17;2.53;;;18.50;99.90;;;19.32;100.00;98403.94;5078629;28;20483;-78
2023/08/16 06:28:15;;;;;;;3.03;2.43;;;18.60;99.90;;;19.36;100.00;98407.72;5076054;28;20495;-78
2023/08/16 06:30:45;;;;;;;4.80;2.50;;;18.60;99.90;;;19.41;100.00;98407.84;5075833;28;21243;-78
2023/08/16 06:33:17;;;;;;;3.03;2.60;;;18.60;99.90;;;19.46;100.00;98405.31;5078370;28;20464;-78
2023/08/16 06:35:47;;;;;;;8.67;2.67;;;18.60;99.90;;;19.47;100.00;98411.44;5077504;28;20543;-77
2023/08/16 06:38:17;;;;;;;2.87;2.60;;;18.70;99.90;;;19.48;100.00;98403.22;5077973;28;20461;-78
2023/08/16 06:40:49;;;;;;;3.73;2.10;;;18.70;99.90;;;19.51;100.00;98402.75;5076164;28;20460;-78
2023/08/16 06:43:21;;;;;;;6.33;2.30;;;18.70;99.90;;;19.52;100.00;98403.56;5076025;28;20467;-78
2023/08/16 06:45:52;;;;;;;16.67;2.83;;;18.70;99.90;;;19.46;100.00;98400.00;5076034;28;20456;-78
2023/08/16 06:48:22;;;;;;;2.40;2.20;;;18.80;99.90;;;19.48;100.00;98405.88;5074677;28;20467;-78
2023/08/16 06:50:52;;;;;;;10.37;2.67;;;18.80;99.90;;;19.50;100.00;98427.69;5074574;28;20831;-76
2023/08/16 06:53:22;;;;;;;20.97;3.10;;;18.90;99.90;;;19.53;100.00;98437.00;5073115;28;20475;-78
2023/08/16 06:55:54;;;;;;;3.23;2.40;;;18.80;99.90;;;19.54;100.00;98438.63;5076441;28;20461;-78
2023/08/16 06:58:26;;;;;;;2.90;2.07;;;19.00;99.90;;;19.55;100.00;98445.53;5075836;28;20463;-78
2023/08/16 07:00:56;;;;;;;2.90;2.37;;;18.90;99.90;;;19.59;100.00;98431.56;5076882;28;20525;-78
2023/08/16 07:03:27;;;;;;;10.40;3.77;;;18.90;99.90;;;19.59;100.00;98405.03;5074685;28;20597;-78
2023/08/16 07:05:57;;;;;;;4.80;3.40;;;18.90;99.90;;;19.61;100.00;98385.44;5079017;28;20462;-79
2023/08/16 07:08:26;;;;;;;3.50;2.50;;;19.00;99.90;;;19.63;100.00;98404.56;5076526;28;20518;-78
2023/08/16 07:10:55;;;;;;;10.83;2.87;;;18.90;99.90;;;19.56;100.00;98416.13;5077859;28;21267;-78
2023/08/16 07:13:26;;;;;;;5.60;3.00;;;19.00;99.90;;;19.55;100.00;98419.00;5076138;28;21000;-78
2023/08/16 07:15:57;;;;;;;5.07;2.97;;;18.90;99.90;;;19.58;100.00;98421.97;5076016;28;21001;-78
2023/08/16 07:18:25;;;;;;;3.90;2.90;;;18.90;99.90;;;19.61;100.00;98419.91;5076367;28;20603;-78
2023/08/16 07:20:56;;;;;;;2.80;2.50;;;18.90;99.90;;;19.65;100.00;98402.47;5076021;28;20495;-78
2023/08/16 07:23:26;;;;;;;13.57;3.10;;;18.80;99.90;;;19.67;100.00;98411.00;5077239;28;20853;-78
2023/08/16 07:25:57;;;;;;;5.53;2.43;;;18.90;99.90;;;19.70;100.00;98405.22;5078650;28;20463;-78
2023/08/16 07:28:27;;;;;;;6.70;2.80;;;18.90;99.90;;;19.74;100.00;98406.38;5078095;28;20517;-78
2023/08/16 07:30:58;;;;;;;5.03;3.10;;;18.90;99.90;;;19.78;100.00;98407.50;5077730;28;20514;-78
2023/08/16 07:33:30;;;;;;;5.70;3.03;;;18.90;99.90;;;19.81;100.00;98409.69;5076697;28;20478;-78
2023/08/16 07:36:04;;;;;;;3.80;2.43;;;19.00;99.90;;;19.85;100.00;98418.78;5078638;28;20460;-78
2023/08/16 07:38:34;;;;;;;6.40;2.90;;;19.10;99.90;;;19.88;100.00;98428.94;5076074;28;20469;-78
2023/08/16 07:41:05;;;;;;;3.60;2.80;;;19.10;99.90;;;19.89;100.00;98433.19;5076330;28;20468;-79
2023/08/16 07:43:36;;;;;;;3.07;2.70;;;19.20;99.90;;;19.93;100.00;98429.81;5074623;28;20486;-78
2023/08/16 07:46:06;;;;;;;10.50;3.30;;;19.20;99.90;;;19.92;100.00;98435.38;5074323;28;20981;-78
2023/08/16 07:48:36;;;;;;;3.43;2.73;;;19.20;99.90;;;19.95;100.00;98434.91;5074218;28;20526;-78
2023/08/16 07:51:06;;;;;;;5.43;2.50;;;19.20;99.90;;;20.00;100.00;98442.97;5074013;28;20509;-78
2023/08/16 07:53:36;;;;;;;5.53;2.87;;;19.30;99.90;;;20.05;100.00;98451.03;5074897;28;20452;-78
2023/08/16 07:56:06;;;;;;;6.80;3.63;;;19.20;99.90;;;20.09;100.00;98458.28;5073848;28;20463;-78
2023/08/16 07:58:38;;;;;;;8.73;2.90;;;19.30;99.90;;;20.14;100.00;98452.25;5078509;28;20476;-80
2023/08/16 08:01:09;;;;;;;6.40;3.03;;;19.30;99.90;;;20.19;100.00;98443.56;5079903;28;20459;-79
2023/08/16 08:03:40;;;;;;;3.97;3.57;;;19.40;99.90;;;20.22;100.00;98451.88;5078006;28;20519;-78
2023/08/16 08:06:10;;;;;;;4.27;3.20;;;19.40;99.90;;;20.26;100.00;98460.97;5082057;28;20459;-78
2023/08/16 08:08:40;;;;;;;3.47;2.60;;;19.50;99.90;;;20.31;100.00;98454.97;5077572;28;21076;-78
2023/08/16 08:11:10;;;;;;;5.47;3.13;;;19.40;99.90;;;20.35;100.00;98448.94;5080544;28;20456;-78
2023/08/16 08:13:41;;;;;;;6.23;3.63;;;19.60;99.90;;;20.40;100.00;98453.53;5078720;28;20957;-79
2023/08/16 08:16:12;;;;;;;6.90;3.73;;;19.60;99.90;;;20.43;100.00;98443.25;5080998;28;20472;-77
2023/08/16 08:18:43;;;;;;;5.27;3.47;;;19.60;99.90;;;20.46;100.00;98453.38;5079613;28;20467;-78
2023/08/16 08:21:13;;;;;;;3.90;3.03;;;19.60;99.90;;;20.47;100.00;98455.00;5079299;28;20485;-78
2023/08/16 08:23:43;;;;;;;3.23;2.93;;;19.70;99.90;;;20.49;100.00;98458.22;5080383;28;20517;-77
2023/08/16 08:26:12;;;;;;;6.13;3.30;;;19.70;99.90;;;20.52;100.00;98462.25;5079248;28;20534;-78
2023/08/16 08:28:44;;;;;;;6.17;3.07;;;19.70;99.90;;;20.53;100.00;98458.53;5078083;28;21001;-77
2023/08/16 08:31:15;;;;;;;6.93;3.87;;;19.80;99.90;;;20.57;100.00;98460.50;5080902;28;20460;-78
2023/08/16 08:33:45;;;;;;;4.07;3.10;;;19.70;99.90;;;20.61;100.00;98460.81;5078339;28;20486;-78
2023/08/16 08:36:15;;;;;;;4.30;3.27;;;19.70;99.90;;;20.65;100.00;98455.81;5079163;28;20466;-78
2023/08/16 08:38:44;;;;;;;5.33;3.10;;;19.80;99.90;;;20.68;100.00;98453.47;5079324;28;20472;-78
2023/08/16 08:41:14;;;;;;;6.23;3.10;;;19.80;99.90;;;20.73;100.00;98456.22;5078439;28;20462;-78
2023/08/16 08:43:49;;;;;;;3.47;2.87;;;19.90;99.90;;;20.80;100.00;98448.06;5081202;28;20460;-78
2023/08/16 08:46:30;;;;;;;5.47;3.87;;;20.00;99.90;;;20.88;100.00;98455.66;5080759;28;20981;-78
2023/08/16 08:49:01;;;;;;;5.13;3.40;;;20.00;99.90;;;20.96;100.00;98468.53;5081253;28;20480;-79
2023/08/16 08:51:32;;;;;;;4.53;3.50;;;20.20;99.90;;;21.03;100.00;98466.53;5080912;28;20463;-78
2023/08/16 08:54:03;;;;;;;4.53;3.37;;;20.40;99.90;;;21.11;100.00;98460.00;5081407;28;20961;-78
2023/08/16 08:56:34;;;;;;;5.70;3.90;;;20.50;99.90;;;21.19;100.00;98463.06;5080523;28;20459;-80
2023/08/16 08:59:07;;;;;;;5.50;3.50;;;20.50;99.90;;;21.29;100.00;98468.50;5079129;28;20516;-78
2023/08/16 09:01:48;;;;;;;3.60;3.20;;;20.60;99.90;;;21.39;100.00;98462.50;5079983;28;20586;-78
2023/08/16 09:04:20;;;;;;;3.90;3.00;;;20.70;99.90;;;21.46;100.00;98465.81;5078819;28;20470;-78
2023/08/16 09:06:50;;;;;;;3.60;2.90;;;20.70;99.90;;;21.53;100.00;98461.91;5079447;28;20954;-79
2023/08/16 09:09:23;;;;;;;4.20;3.43;;;20.80;99.90;;;21.60;100.00;98464.38;5077630;28;20532;-78
2023/08/16 09:11:53;;;;;;;5.40;3.43;;;20.90;99.90;;;21.71;100.00;98460.00;5078465;28;20989;-78
2023/08/16 09:14:24;;;;;;;4.50;3.47;;;21.00;99.90;;;21.79;100.00;98467.56;5079607;28;20533;-78
2023/08/16 09:16:54;;;;;;;2.93;2.63;;;21.10;99.90;;;21.89;100.00;98465.00;5078054;28;20964;-78
2023/08/16 09:19:23;;;;;;;4.83;3.20;;;21.20;99.90;;;21.98;100.00;98461.69;5078613;28;20488;-78
2023/08/16 09:21:54;;;;;;;5.10;2.83;;;21.30;99.90;;;22.07;100.00;98468.16;5076379;28;20461;-79
2023/08/16 09:24:24;;;;;;;2.83;2.63;;;21.40;99.90;;;22.14;100.00;98460.00;5078285;28;20491;-78
2023/08/16 09:26:59;;;;;;;4.00;3.20;;;21.40;99.90;;;22.21;100.00;98454.47;5078357;28;20473;-78
2023/08/16 09:29:32;;;;;;;3.30;2.47;;;21.60;99.90;;;22.29;100.00;98446.81;5077241;28;20467;-79
2023/08/16 09:32:05;;;;;;;9.77;3.07;;;21.60;99.90;;;22.30;100.00;98444.94;5078728;28;20477;-78
2023/08/16 09:34:36;;;;;;;5.07;3.10;;;21.60;99.90;;;22.35;100.00;98439.69;5077194;28;20499;-78
2023/08/16 09:37:23;;;;;;;5.27;2.70;;;21.60;99.90;;;22.41;100.00;98438.66;5077198;28;20494;-78
2023/08/16 09:39:57;;;;;;;3.47;2.73;;;21.70;99.90;;;22.43;100.00;98447.19;5080138;28;20496;-78
2023/08/16 09:42:34;;;;;;;4.27;3.20;;;21.80;99.90;;;22.49;100.00;98448.88;5077954;28;20464;-78
2023/08/16 09:45:06;;;;;;;3.30;2.30;;;21.80;99.90;;;22.46;100.00;98447.50;5077451;28;20522;-78
2023/08/16 09:47:43;;;;;;;2.50;2.30;;;21.90;99.90;;;22.57;100.00;98443.88;5078905;28;20941;-77
2023/08/16 09:50:21;;;;;;;4.50;2.57;;;22.00;99.90;;;22.65;100.00;98442.59;5078153;28;20458;-78
2023/08/16 09:52:51;;;;;;;13.90;2.73;;;22.10;99.90;;;22.73;100.00;98428.03;5078725;28;20977;-78
2023/08/16 09:55:27;;;;;;;4.10;2.23;;;22.20;99.90;;;22.80;100.00;98436.63;5077212;28;20497;-79
2023/08/16 09:57:58;;;;;;;2.90;2.40;;;22.30;99.90;;;22.85;100.00;98439.31;5078489;28;20817;-78
2023/08/16 10:00:32;;;;;;;5.77;2.40;;;22.40;99.90;;;22.91;100.00;98435.59;5079599;28;20555;-78
2023/08/16 10:03:03;;;;;;;3.80;2.50;;;22.50;99.90;;;23.00;100.00;98439.41;5077404;28;20467;-78
2023/08/16 10:05:33;;;;;;;2.20;2.00;;;22.50;99.90;;;23.04;100.00;98432.50;5077271;28;21003;-78
2023/08/16 10:08:16;;;;;;;3.30;2.50;;;22.50;99.90;;;23.10;100.00;98433.31;5078397;28;20476;-78
2023/08/16 10:10:46;;;;;;;5.40;2.43;;;22.60;99.90;;;23.13;100.00;98430.94;5079151;28;20522;-79
2023/08/16 10:13:17;;;;;;;5.10;2.30;;;22.70;99.90;;;23.23;100.00;98430.19;5078440;28;20467;-78
2023/08/16 10:15:51;;;;;;;2.10;1.90;;;22.80;99.90;;;23.29;100.00;98429.19;5076951;28;21013;-78
2023/08/16 10:18:25;;;;;;;3.30;2.40;;;22.80;99.90;;;23.38;100.00;98420.41;5078143;28;20470;-78
2023/08/16 10:21:00;;;;;;;3.10;2.27;;;22.90;99.90;;;23.42;100.00;98423.41;5074158;28;20860;-78
2023/08/16 10:23:31;;;;;;;4.13;2.77;;;22.80;99.90;;;23.44;100.00;98416.72;5076107;28;20466;-78
2023/08/16 10:26:05;;;;;;;5.87;2.97;;;22.80;99.90;;;23.48;100.00;98417.00;5074850;28;20498;-78
2023/08/16 10:28:37;;;;;;;4.17;2.67;;;22.90;99.90;;;23.52;100.00;98418.91;5075768;28;20467;-77